sensor_id;sensor_type;location;lat;lon;timestamp;P1;durP1;ratioP1;P2;durP2;ratioP2
11791;SDS011;5953;52.372;9.918;2023-04-03T00:01:09;3.40;;;1.57;;
11791;SDS011;5953;52.372;9.918;2023-04-03T00:03:37;2.97;;;1.37;;
11791;SDS011;5953;52.372;9.918;2023-04-03T00:06:05;2.13;;;1.40;;
11791;SDS011;5953;52.372;9.918;2023-04-03T00:08:36;4.20;;;1.50;;
11791;SDS011;5953;52.372;9.918;2023-04-03T00:11:05;5.00;;;1.47;;
11791;SDS011;5953;52.372;9.918;2023-04-03T00:13:33;2.43;;;1.67;;
11791;SDS011;5953;52.372;9.918;2023-04-03T00:16:01;3.20;;;1.70;;
11791;SDS011;5953;52.372;9.918;2023-04-03T00:18:30;3.27;;;1.57;;
11791;SDS011;5953;52.372;9.918;2023-04-03T00:20:58;3.47;;;1.47;;
11791;SDS011;5953;52.372;9.918;2023-04-03T00:23:26;3.87;;;1.40;;
11791;SDS011;5953;52.372;9.918;2023-04-03T00:25:55;3.13;;;1.17;;
11791;SDS011;5953;52.372;9.918;2023-04-03T00:28:23;7.77;;;1.80;;
11791;SDS011;5953;52.372;9.918;2023-04-03T00:30:51;6.90;;;1.40;;
11791;SDS011;5953;52.372;9.918;2023-04-03T00:33:19;3.83;;;1.10;;
11791;SDS011;5953;52.372;9.918;2023-04-03T00:35:48;4.43;;;1.57;;
11791;SDS011;5953;52.372;9.918;2023-04-03T00:38:16;2.37;;;1.20;;
11791;SDS011;5953;52.372;9.918;2023-04-03T00:40:45;2.27;;;1.20;;
11791;SDS011;5953;52.372;9.918;2023-04-03T00:43:16;3.57;;;1.40;;
11791;SDS011;5953;52.372;9.918;2023-04-03T00:45:46;3.50;;;1.30;;
11791;SDS011;5953;52.372;9.918;2023-04-03T00:48:15;2.50;;;1.37;;
11791;SDS011;5953;52.372;9.918;2023-04-03T00:50:45;4.97;;;1.77;;
11791;SDS011;5953;52.372;9.918;2023-04-03T00:53:16;3.37;;;1.43;;
11791;SDS011;5953;52.372;9.918;2023-04-03T00:55:47;2.30;;;1.50;;
11791;SDS011;5953;52.372;9.918;2023-04-03T00:58:18;2.33;;;1.30;;
11791;SDS011;5953;52.372;9.918;2023-04-03T01:00:49;6.03;;;1.57;;
11791;SDS011;5953;52.372;9.918;2023-04-03T01:03:22;6.73;;;1.80;;
11791;SDS011;5953;52.372;9.918;2023-04-03T01:05:50;2.27;;;1.17;;
11791;SDS011;5953;52.372;9.918;2023-04-03T01:08:18;5.00;;;1.60;;
11791;SDS011;5953;52.372;9.918;2023-04-03T01:10:45;4.97;;;1.50;;
11791;SDS011;5953;52.372;9.918;2023-04-03T01:13:19;2.87;;;1.43;;
11791;SDS011;5953;52.372;9.918;2023-04-03T01:15:48;4.50;;;1.40;;
11791;SDS011;5953;52.372;9.918;2023-04-03T01:18:16;2.97;;;1.40;;
11791;SDS011;5953;52.372;9.918;2023-04-03T01:20:59;3.83;;;1.70;;
11791;SDS011;5953;52.372;9.918;2023-04-03T01:23:47;4.00;;;1.33;;
11791;SDS011;5953;52.372;9.918;2023-04-03T01:26:47;2.70;;;1.20;;
11791;SDS011;5953;52.372;9.918;2023-04-03T01:29:17;2.13;;;1.40;;
11791;SDS011;5953;52.372;9.918;2023-04-03T01:31:53;4.03;;;1.33;;
11791;SDS011;5953;52.372;9.918;2023-04-03T01:34:23;4.53;;;1.43;;
11791;SDS011;5953;52.372;9.918;2023-04-03T01:36:51;3.00;;;1.40;;
11791;SDS011;5953;52.372;9.918;2023-04-03T01:39:19;5.90;;;1.50;;
11791;SDS011;5953;52.372;9.918;2023-04-03T01:41:47;4.03;;;1.40;;
11791;SDS011;5953;52.372;9.918;2023-04-03T01:44:16;4.17;;;1.50;;
11791;SDS011;5953;52.372;9.918;2023-04-03T01:46:43;4.00;;;1.80;;
11791;SDS011;5953;52.372;9.918;2023-04-03T01:49:12;7.10;;;1.57;;
11791;SDS011;5953;52.372;9.918;2023-04-03T01:51:40;1.93;;;1.50;;
11791;SDS011;5953;52.372;9.918;2023-04-03T01:54:08;2.10;;;1.70;;
11791;SDS011;5953;52.372;9.918;2023-04-03T01:56:36;4.53;;;1.47;;
11791;SDS011;5953;52.372;9.918;2023-04-03T01:59:05;2.80;;;1.40;;
11791;SDS011;5953;52.372;9.918;2023-04-03T02:01:33;4.80;;;1.70;;
11791;SDS011;5953;52.372;9.918;2023-04-03T02:04:00;3.20;;;1.40;;
11791;SDS011;5953;52.372;9.918;2023-04-03T02:06:30;2.80;;;1.67;;
11791;SDS011;5953;52.372;9.918;2023-04-03T02:08:57;4.47;;;1.20;;
11791;SDS011;5953;52.372;9.918;2023-04-03T02:11:25;3.53;;;1.43;;
11791;SDS011;5953;52.372;9.918;2023-04-03T02:13:53;6.93;;;1.93;;
11791;SDS011;5953;52.372;9.918;2023-04-03T02:16:21;3.33;;;1.53;;
11791;SDS011;5953;52.372;9.918;2023-04-03T02:18:48;4.23;;;1.60;;
11791;SDS011;5953;52.372;9.918;2023-04-03T02:21:17;3.90;;;1.17;;
11791;SDS011;5953;52.372;9.918;2023-04-03T02:23:46;4.70;;;1.50;;
11791;SDS011;5953;52.372;9.918;2023-04-03T02:26:14;2.13;;;1.50;;
11791;SDS011;5953;52.372;9.918;2023-04-03T02:28:43;3.37;;;1.30;;
11791;SDS011;5953;52.372;9.918;2023-04-03T02:31:11;1.93;;;1.47;;
11791;SDS011;5953;52.372;9.918;2023-04-03T02:33:39;2.57;;;1.60;;
11791;SDS011;5953;52.372;9.918;2023-04-03T02:36:07;1.73;;;1.03;;
11791;SDS011;5953;52.372;9.918;2023-04-03T02:38:35;2.00;;;1.40;;
11791;SDS011;5953;52.372;9.918;2023-04-03T02:41:05;3.97;;;1.67;;
11791;SDS011;5953;52.372;9.918;2023-04-03T02:43:35;2.40;;;1.53;;
11791;SDS011;5953;52.372;9.918;2023-04-03T02:46:03;2.83;;;1.40;;
11791;SDS011;5953;52.372;9.918;2023-04-03T02:48:31;4.90;;;1.33;;
11791;SDS011;5953;52.372;9.918;2023-04-03T02:50:59;5.20;;;1.53;;
11791;SDS011;5953;52.372;9.918;2023-04-03T02:53:27;3.07;;;1.53;;
11791;SDS011;5953;52.372;9.918;2023-04-03T02:55:55;1.97;;;1.07;;
11791;SDS011;5953;52.372;9.918;2023-04-03T02:58:24;3.17;;;1.40;;
11791;SDS011;5953;52.372;9.918;2023-04-03T03:00:52;2.73;;;1.20;;
11791;SDS011;5953;52.372;9.918;2023-04-03T03:03:21;2.43;;;1.57;;
11791;SDS011;5953;52.372;9.918;2023-04-03T03:05:49;3.70;;;1.33;;
11791;SDS011;5953;52.372;9.918;2023-04-03T03:08:16;2.27;;;1.30;;
11791;SDS011;5953;52.372;9.918;2023-04-03T03:10:46;8.10;;;2.07;;
11791;SDS011;5953;52.372;9.918;2023-04-03T03:13:14;3.53;;;1.43;;
11791;SDS011;5953;52.372;9.918;2023-04-03T03:15:43;5.70;;;1.80;;
11791;SDS011;5953;52.372;9.918;2023-04-03T03:18:11;2.37;;;1.17;;
11791;SDS011;5953;52.372;9.918;2023-04-03T03:20:38;5.07;;;1.60;;
11791;SDS011;5953;52.372;9.918;2023-04-03T03:23:06;7.73;;;1.63;;
11791;SDS011;5953;52.372;9.918;2023-04-03T03:25:37;3.50;;;1.50;;
11791;SDS011;5953;52.372;9.918;2023-04-03T03:28:05;3.93;;;1.20;;
11791;SDS011;5953;52.372;9.918;2023-04-03T03:30:33;4.70;;;1.30;;
11791;SDS011;5953;52.372;9.918;2023-04-03T03:33:03;3.90;;;1.50;;
11791;SDS011;5953;52.372;9.918;2023-04-03T03:35:30;4.87;;;1.43;;
11791;SDS011;5953;52.372;9.918;2023-04-03T03:37:58;1.87;;;1.23;;
11791;SDS011;5953;52.372;9.918;2023-04-03T03:40:26;4.53;;;1.50;;
11791;SDS011;5953;52.372;9.918;2023-04-03T03:42:54;6.20;;;1.93;;
11791;SDS011;5953;52.372;9.918;2023-04-03T03:45:21;4.97;;;1.50;;
11791;SDS011;5953;52.372;9.918;2023-04-03T03:47:49;3.20;;;1.23;;
11791;SDS011;5953;52.372;9.918;2023-04-03T03:50:19;3.23;;;1.40;;
11791;SDS011;5953;52.372;9.918;2023-04-03T03:52:46;2.00;;;1.10;;
11791;SDS011;5953;52.372;9.918;2023-04-03T03:55:14;3.30;;;1.30;;
11791;SDS011;5953;52.372;9.918;2023-04-03T03:57:42;2.07;;;1.20;;
11791;SDS011;5953;52.372;9.918;2023-04-03T04:00:10;2.13;;;1.40;;
11791;SDS011;5953;52.372;9.918;2023-04-03T04:02:38;5.03;;;1.60;;
11791;SDS011;5953;52.372;9.918;2023-04-03T04:05:06;2.60;;;1.30;;
11791;SDS011;5953;52.372;9.918;2023-04-03T04:07:35;5.00;;;1.50;;
11791;SDS011;5953;52.372;9.918;2023-04-03T04:10:03;1.67;;;1.57;;
11791;SDS011;5953;52.372;9.918;2023-04-03T04:12:32;7.43;;;1.50;;
11791;SDS011;5953;52.372;9.918;2023-04-03T04:15:01;3.67;;;1.50;;
11791;SDS011;5953;52.372;9.918;2023-04-03T04:17:29;3.90;;;1.47;;
11791;SDS011;5953;52.372;9.918;2023-04-03T04:19:59;4.00;;;1.47;;
11791;SDS011;5953;52.372;9.918;2023-04-03T04:22:27;3.40;;;1.37;;
11791;SDS011;5953;52.372;9.918;2023-04-03T04:24:56;4.87;;;1.60;;
11791;SDS011;5953;52.372;9.918;2023-04-03T04:27:24;4.07;;;1.40;;
11791;SDS011;5953;52.372;9.918;2023-04-03T04:29:51;6.57;;;1.40;;
11791;SDS011;5953;52.372;9.918;2023-04-03T04:32:19;3.80;;;1.63;;
11791;SDS011;5953;52.372;9.918;2023-04-03T04:34:47;2.53;;;1.00;;
11791;SDS011;5953;52.372;9.918;2023-04-03T04:37:14;7.00;;;1.90;;
11791;SDS011;5953;52.372;9.918;2023-04-03T04:39:42;5.00;;;1.50;;
11791;SDS011;5953;52.372;9.918;2023-04-03T04:42:11;2.80;;;1.00;;
11791;SDS011;5953;52.372;9.918;2023-04-03T04:44:43;2.00;;;1.43;;
11791;SDS011;5953;52.372;9.918;2023-04-03T04:47:11;8.53;;;1.87;;
11791;SDS011;5953;52.372;9.918;2023-04-03T04:49:38;3.33;;;1.70;;
11791;SDS011;5953;52.372;9.918;2023-04-03T04:52:06;2.87;;;1.60;;
11791;SDS011;5953;52.372;9.918;2023-04-03T04:54:34;4.77;;;1.93;;
11791;SDS011;5953;52.372;9.918;2023-04-03T04:57:02;5.80;;;1.80;;
11791;SDS011;5953;52.372;9.918;2023-04-03T04:59:31;5.17;;;1.57;;
11791;SDS011;5953;52.372;9.918;2023-04-03T05:01:58;5.93;;;1.93;;
11791;SDS011;5953;52.372;9.918;2023-04-03T05:04:26;5.17;;;1.53;;
11791;SDS011;5953;52.372;9.918;2023-04-03T05:06:54;6.00;;;1.40;;
11791;SDS011;5953;52.372;9.918;2023-04-03T05:09:22;6.43;;;1.50;;
11791;SDS011;5953;52.372;9.918;2023-04-03T05:11:50;5.27;;;1.33;;
11791;SDS011;5953;52.372;9.918;2023-04-03T05:14:18;3.73;;;1.03;;
11791;SDS011;5953;52.372;9.918;2023-04-03T05:16:47;6.03;;;1.60;;
11791;SDS011;5953;52.372;9.918;2023-04-03T05:19:18;5.77;;;1.50;;
11791;SDS011;5953;52.372;9.918;2023-04-03T05:21:46;3.43;;;1.57;;
11791;SDS011;5953;52.372;9.918;2023-04-03T05:24:14;6.93;;;1.30;;
11791;SDS011;5953;52.372;9.918;2023-04-03T05:26:42;2.40;;;1.20;;
11791;SDS011;5953;52.372;9.918;2023-04-03T05:29:10;4.00;;;1.30;;
11791;SDS011;5953;52.372;9.918;2023-04-03T05:31:38;4.47;;;1.67;;
11791;SDS011;5953;52.372;9.918;2023-04-03T05:34:07;5.90;;;1.80;;
11791;SDS011;5953;52.372;9.918;2023-04-03T05:36:35;4.17;;;1.47;;
11791;SDS011;5953;52.372;9.918;2023-04-03T05:39:03;2.97;;;1.43;;
11791;SDS011;5953;52.372;9.918;2023-04-03T05:41:31;4.03;;;1.50;;
11791;SDS011;5953;52.372;9.918;2023-04-03T05:43:59;3.27;;;1.70;;
11791;SDS011;5953;52.372;9.918;2023-04-03T05:46:27;5.47;;;1.47;;
11791;SDS011;5953;52.372;9.918;2023-04-03T05:48:54;5.53;;;1.73;;
11791;SDS011;5953;52.372;9.918;2023-04-03T05:51:24;4.10;;;1.83;;
11791;SDS011;5953;52.372;9.918;2023-04-03T05:53:56;4.37;;;1.43;;
11791;SDS011;5953;52.372;9.918;2023-04-03T05:56:29;3.00;;;1.50;;
11791;SDS011;5953;52.372;9.918;2023-04-03T05:58:57;3.67;;;1.67;;
11791;SDS011;5953;52.372;9.918;2023-04-03T06:01:25;6.40;;;1.30;;
11791;SDS011;5953;52.372;9.918;2023-04-03T06:03:53;3.77;;;1.73;;
11791;SDS011;5953;52.372;9.918;2023-04-03T06:06:23;3.10;;;1.70;;
11791;SDS011;5953;52.372;9.918;2023-04-03T06:08:51;3.00;;;1.50;;
11791;SDS011;5953;52.372;9.918;2023-04-03T06:11:19;6.30;;;1.70;;
11791;SDS011;5953;52.372;9.918;2023-04-03T06:13:48;2.30;;;1.40;;
11791;SDS011;5953;52.372;9.918;2023-04-03T06:16:16;6.10;;;1.83;;
11791;SDS011;5953;52.372;9.918;2023-04-03T06:18:45;5.30;;;2.00;;
11791;SDS011;5953;52.372;9.918;2023-04-03T06:21:12;4.37;;;1.27;;
11791;SDS011;5953;52.372;9.918;2023-04-03T06:23:42;3.20;;;1.90;;
11791;SDS011;5953;52.372;9.918;2023-04-03T06:26:09;5.23;;;2.10;;
11791;SDS011;5953;52.372;9.918;2023-04-03T06:28:37;2.53;;;1.40;;
11791;SDS011;5953;52.372;9.918;2023-04-03T06:31:05;3.33;;;1.60;;
11791;SDS011;5953;52.372;9.918;2023-04-03T06:33:33;4.17;;;1.57;;
11791;SDS011;5953;52.372;9.918;2023-04-03T06:36:03;5.03;;;1.60;;
11791;SDS011;5953;52.372;9.918;2023-04-03T06:38:32;3.73;;;1.70;;
11791;SDS011;5953;52.372;9.918;2023-04-03T06:41:03;3.80;;;1.47;;
11791;SDS011;5953;52.372;9.918;2023-04-03T06:43:31;3.40;;;1.87;;
11791;SDS011;5953;52.372;9.918;2023-04-03T06:46:00;5.40;;;1.53;;
11791;SDS011;5953;52.372;9.918;2023-04-03T06:48:28;4.93;;;1.30;;
11791;SDS011;5953;52.372;9.918;2023-04-03T06:50:56;3.97;;;1.50;;
11791;SDS011;5953;52.372;9.918;2023-04-03T06:53:24;9.50;;;1.47;;
11791;SDS011;5953;52.372;9.918;2023-04-03T06:55:52;8.60;;;1.73;;
11791;SDS011;5953;52.372;9.918;2023-04-03T06:58:22;2.87;;;1.03;;
11791;SDS011;5953;52.372;9.918;2023-04-03T07:00:50;3.20;;;1.60;;
11791;SDS011;5953;52.372;9.918;2023-04-03T07:03:18;5.63;;;1.33;;
11791;SDS011;5953;52.372;9.918;2023-04-03T07:05:45;3.27;;;1.37;;
11791;SDS011;5953;52.372;9.918;2023-04-03T07:08:13;3.60;;;1.17;;
11791;SDS011;5953;52.372;9.918;2023-04-03T07:10:41;4.00;;;1.37;;
11791;SDS011;5953;52.372;9.918;2023-04-03T07:13:09;4.47;;;1.60;;
11791;SDS011;5953;52.372;9.918;2023-04-03T07:15:38;3.70;;;1.50;;
11791;SDS011;5953;52.372;9.918;2023-04-03T07:18:06;4.60;;;1.50;;
11791;SDS011;5953;52.372;9.918;2023-04-03T07:20:34;7.23;;;1.90;;
11791;SDS011;5953;52.372;9.918;2023-04-03T07:23:02;5.63;;;1.40;;
11791;SDS011;5953;52.372;9.918;2023-04-03T07:25:30;3.87;;;1.00;;
11791;SDS011;5953;52.372;9.918;2023-04-03T07:27:59;2.83;;;1.43;;
11791;SDS011;5953;52.372;9.918;2023-04-03T07:30:28;4.70;;;1.60;;
11791;SDS011;5953;52.372;9.918;2023-04-03T07:32:57;4.07;;;1.80;;
11791;SDS011;5953;52.372;9.918;2023-04-03T07:35:25;4.93;;;1.50;;
11791;SDS011;5953;52.372;9.918;2023-04-03T07:37:52;4.03;;;1.40;;
11791;SDS011;5953;52.372;9.918;2023-04-03T07:40:20;7.20;;;1.67;;
11791;SDS011;5953;52.372;9.918;2023-04-03T07:42:48;4.33;;;1.17;;
11791;SDS011;5953;52.372;9.918;2023-04-03T07:45:16;4.50;;;1.07;;
11791;SDS011;5953;52.372;9.918;2023-04-03T07:47:46;3.13;;;1.20;;
11791;SDS011;5953;52.372;9.918;2023-04-03T07:50:15;2.43;;;1.10;;
11791;SDS011;5953;52.372;9.918;2023-04-03T07:52:43;3.70;;;1.30;;
11791;SDS011;5953;52.372;9.918;2023-04-03T07:55:11;4.00;;;1.53;;
11791;SDS011;5953;52.372;9.918;2023-04-03T07:57:39;2.17;;;1.00;;
11791;SDS011;5953;52.372;9.918;2023-04-03T08:00:07;5.53;;;1.00;;
11791;SDS011;5953;52.372;9.918;2023-04-03T08:02:36;4.17;;;1.03;;
11791;SDS011;5953;52.372;9.918;2023-04-03T08:05:04;3.67;;;0.97;;
11791;SDS011;5953;52.372;9.918;2023-04-03T08:07:34;1.67;;;1.00;;
11791;SDS011;5953;52.372;9.918;2023-04-03T08:10:04;1.20;;;1.00;;
11791;SDS011;5953;52.372;9.918;2023-04-03T08:12:33;1.40;;;0.70;;
11791;SDS011;5953;52.372;9.918;2023-04-03T08:15:00;1.67;;;0.80;;
11791;SDS011;5953;52.372;9.918;2023-04-03T08:17:28;2.63;;;1.20;;
11791;SDS011;5953;52.372;9.918;2023-04-03T08:19:56;2.37;;;1.00;;
11791;SDS011;5953;52.372;9.918;2023-04-03T08:22:24;2.70;;;0.67;;
11791;SDS011;5953;52.372;9.918;2023-04-03T08:24:53;4.17;;;0.90;;
11791;SDS011;5953;52.372;9.918;2023-04-03T08:27:25;4.20;;;0.90;;
11791;SDS011;5953;52.372;9.918;2023-04-03T08:29:53;2.83;;;0.83;;
11791;SDS011;5953;52.372;9.918;2023-04-03T08:32:21;1.97;;;0.83;;
11791;SDS011;5953;52.372;9.918;2023-04-03T08:34:49;2.13;;;0.90;;
11791;SDS011;5953;52.372;9.918;2023-04-03T08:37:17;1.13;;;1.03;;
11791;SDS011;5953;52.372;9.918;2023-04-03T08:39:45;1.20;;;0.90;;
11791;SDS011;5953;52.372;9.918;2023-04-03T08:42:16;4.37;;;1.63;;
11791;SDS011;5953;52.372;9.918;2023-04-03T08:44:51;4.60;;;1.43;;
11791;SDS011;5953;52.372;9.918;2023-04-03T08:47:23;3.30;;;1.00;;
11791;SDS011;5953;52.372;9.918;2023-04-03T08:49:58;3.03;;;1.10;;
11791;SDS011;5953;52.372;9.918;2023-04-03T08:52:28;5.10;;;1.10;;
11791;SDS011;5953;52.372;9.918;2023-04-03T08:55:03;3.63;;;1.10;;
11791;SDS011;5953;52.372;9.918;2023-04-03T08:57:36;1.67;;;1.00;;
11791;SDS011;5953;52.372;9.918;2023-04-03T09:00:14;2.63;;;0.90;;
11791;SDS011;5953;52.372;9.918;2023-04-03T09:02:45;4.30;;;1.03;;
11791;SDS011;5953;52.372;9.918;2023-04-03T09:05:15;3.30;;;1.00;;
11791;SDS011;5953;52.372;9.918;2023-04-03T09:07:45;5.87;;;1.10;;
11791;SDS011;5953;52.372;9.918;2023-04-03T09:10:15;2.27;;;1.20;;
11791;SDS011;5953;52.372;9.918;2023-04-03T09:12:53;2.63;;;1.03;;
11791;SDS011;5953;52.372;9.918;2023-04-03T09:15:26;1.00;;;0.80;;
11791;SDS011;5953;52.372;9.918;2023-04-03T09:18:05;2.80;;;1.10;;
11791;SDS011;5953;52.372;9.918;2023-04-03T09:20:43;2.40;;;0.90;;
11791;SDS011;5953;52.372;9.918;2023-04-03T09:23:19;4.00;;;0.97;;
11791;SDS011;5953;52.372;9.918;2023-04-03T09:25:53;3.50;;;0.80;;
11791;SDS011;5953;52.372;9.918;2023-04-03T09:28:26;2.40;;;1.00;;
11791;SDS011;5953;52.372;9.918;2023-04-03T09:31:12;1.50;;;1.00;;
11791;SDS011;5953;52.372;9.918;2023-04-03T09:33:46;3.90;;;1.13;;
11791;SDS011;5953;52.372;9.918;2023-04-03T09:39:08;3.57;;;0.83;;
11791;SDS011;5953;52.372;9.918;2023-04-03T09:41:39;1.83;;;0.90;;
11791;SDS011;5953;52.372;9.918;2023-04-03T09:44:19;2.37;;;0.90;;
11791;SDS011;5953;52.372;9.918;2023-04-03T09:46:49;3.27;;;0.90;;
11791;SDS011;5953;52.372;9.918;2023-04-03T09:49:17;1.03;;;0.73;;
11791;SDS011;5953;52.372;9.918;2023-04-03T09:51:46;1.07;;;0.87;;
11791;SDS011;5953;52.372;9.918;2023-04-03T09:54:33;2.23;;;0.80;;
11791;SDS011;5953;52.372;9.918;2023-04-03T09:57:10;2.63;;;1.00;;
11791;SDS011;5953;52.372;9.918;2023-04-03T09:59:43;1.77;;;0.83;;
11791;SDS011;5953;52.372;9.918;2023-04-03T10:02:21;1.07;;;0.80;;
11791;SDS011;5953;52.372;9.918;2023-04-03T10:04:57;2.50;;;0.87;;
11791;SDS011;5953;52.372;9.918;2023-04-03T10:07:35;3.23;;;0.73;;
11791;SDS011;5953;52.372;9.918;2023-04-03T10:10:16;3.17;;;0.90;;
11791;SDS011;5953;52.372;9.918;2023-04-03T10:12:46;4.07;;;1.40;;
11791;SDS011;5953;52.372;9.918;2023-04-03T10:15:16;6.30;;;1.40;;
11791;SDS011;5953;52.372;9.918;2023-04-03T10:17:50;1.87;;;0.57;;
11791;SDS011;5953;52.372;9.918;2023-04-03T10:20:27;1.23;;;0.70;;
11791;SDS011;5953;52.372;9.918;2023-04-03T10:23:02;2.27;;;0.63;;
11791;SDS011;5953;52.372;9.918;2023-04-03T10:25:43;1.63;;;0.80;;
11791;SDS011;5953;52.372;9.918;2023-04-03T10:28:22;2.40;;;1.10;;
11791;SDS011;5953;52.372;9.918;2023-04-03T10:30:58;2.67;;;1.00;;
11791;SDS011;5953;52.372;9.918;2023-04-03T10:33:35;6.80;;;1.10;;
11791;SDS011;5953;52.372;9.918;2023-04-03T10:36:12;2.17;;;1.07;;
11791;SDS011;5953;52.372;9.918;2023-04-03T10:38:48;0.97;;;0.60;;
11791;SDS011;5953;52.372;9.918;2023-04-03T10:41:23;2.53;;;0.93;;
11791;SDS011;5953;52.372;9.918;2023-04-03T10:44:02;6.47;;;1.30;;
11791;SDS011;5953;52.372;9.918;2023-04-03T10:46:38;3.03;;;0.90;;
11791;SDS011;5953;52.372;9.918;2023-04-03T10:52:06;1.80;;;0.77;;
11791;SDS011;5953;52.372;9.918;2023-04-03T10:54:44;2.90;;;1.00;;
11791;SDS011;5953;52.372;9.918;2023-04-03T10:57:16;1.83;;;0.80;;
11791;SDS011;5953;52.372;9.918;2023-04-03T10:59:46;3.93;;;0.90;;
11791;SDS011;5953;52.372;9.918;2023-04-03T11:02:22;3.07;;;1.20;;
11791;SDS011;5953;52.372;9.918;2023-04-03T11:04:57;2.90;;;0.87;;
11791;SDS011;5953;52.372;9.918;2023-04-03T11:07:29;2.20;;;0.97;;
11791;SDS011;5953;52.372;9.918;2023-04-03T11:10:05;2.07;;;0.70;;
11791;SDS011;5953;52.372;9.918;2023-04-03T11:12:41;0.73;;;0.60;;
11791;SDS011;5953;52.372;9.918;2023-04-03T11:15:13;1.23;;;0.67;;
11791;SDS011;5953;52.372;9.918;2023-04-03T11:17:46;1.80;;;0.97;;
11791;SDS011;5953;52.372;9.918;2023-04-03T11:20:20;3.33;;;0.67;;
11791;SDS011;5953;52.372;9.918;2023-04-03T11:22:56;1.67;;;0.70;;
11791;SDS011;5953;52.372;9.918;2023-04-03T11:25:29;2.07;;;0.97;;
11791;SDS011;5953;52.372;9.918;2023-04-03T11:27:59;2.70;;;0.80;;
11791;SDS011;5953;52.372;9.918;2023-04-03T11:30:30;2.37;;;0.80;;
11791;SDS011;5953;52.372;9.918;2023-04-03T11:33:08;1.73;;;1.17;;
11791;SDS011;5953;52.372;9.918;2023-04-03T11:35:47;3.20;;;1.00;;
11791;SDS011;5953;52.372;9.918;2023-04-03T11:38:20;1.80;;;1.00;;
11791;SDS011;5953;52.372;9.918;2023-04-03T11:40:51;2.40;;;0.90;;
11791;SDS011;5953;52.372;9.918;2023-04-03T11:43:22;2.87;;;1.07;;
11791;SDS011;5953;52.372;9.918;2023-04-03T11:45:53;1.73;;;0.97;;
11791;SDS011;5953;52.372;9.918;2023-04-03T11:51:43;1.63;;;0.93;;
11791;SDS011;5953;52.372;9.918;2023-04-03T11:57:30;2.10;;;0.80;;
11791;SDS011;5953;52.372;9.918;2023-04-03T12:03:33;2.77;;;0.80;;
11791;SDS011;5953;52.372;9.918;2023-04-03T12:09:28;2.07;;;0.80;;
11791;SDS011;5953;52.372;9.918;2023-04-03T12:15:24;2.77;;;1.27;;
11791;SDS011;5953;52.372;9.918;2023-04-03T12:21:23;0.80;;;0.70;;
11791;SDS011;5953;52.372;9.918;2023-04-03T12:24:25;2.17;;;0.90;;
11791;SDS011;5953;52.372;9.918;2023-04-03T12:27:03;2.80;;;0.77;;
11791;SDS011;5953;52.372;9.918;2023-04-03T12:29:37;0.63;;;0.60;;
11791;SDS011;5953;52.372;9.918;2023-04-03T12:32:12;2.40;;;0.80;;
11791;SDS011;5953;52.372;9.918;2023-04-03T12:34:54;4.83;;;0.70;;
11791;SDS011;5953;52.372;9.918;2023-04-03T12:37:38;3.23;;;1.10;;
11791;SDS011;5953;52.372;9.918;2023-04-03T12:40:18;1.73;;;0.97;;
11791;SDS011;5953;52.372;9.918;2023-04-03T12:42:58;1.13;;;0.67;;
11791;SDS011;5953;52.372;9.918;2023-04-03T12:45:47;2.57;;;1.03;;
11791;SDS011;5953;52.372;9.918;2023-04-03T12:48:22;0.70;;;0.70;;
11791;SDS011;5953;52.372;9.918;2023-04-03T12:50:52;3.07;;;0.80;;
11791;SDS011;5953;52.372;9.918;2023-04-03T12:53:21;2.07;;;0.90;;
11791;SDS011;5953;52.372;9.918;2023-04-03T12:55:54;2.30;;;0.90;;
11791;SDS011;5953;52.372;9.918;2023-04-03T12:58:24;2.00;;;0.60;;
11791;SDS011;5953;52.372;9.918;2023-04-03T13:01:00;2.47;;;0.93;;
11791;SDS011;5953;52.372;9.918;2023-04-03T13:03:29;1.43;;;0.90;;
11791;SDS011;5953;52.372;9.918;2023-04-03T13:05:59;3.00;;;0.80;;
11791;SDS011;5953;52.372;9.918;2023-04-03T13:08:30;2.13;;;0.63;;
11791;SDS011;5953;52.372;9.918;2023-04-03T13:11:00;1.97;;;1.17;;
11791;SDS011;5953;52.372;9.918;2023-04-03T13:13:30;2.33;;;1.00;;
11791;SDS011;5953;52.372;9.918;2023-04-03T13:15:58;3.23;;;1.23;;
11791;SDS011;5953;52.372;9.918;2023-04-03T13:18:28;2.50;;;0.87;;
11791;SDS011;5953;52.372;9.918;2023-04-03T13:20:59;1.20;;;0.90;;
11791;SDS011;5953;52.372;9.918;2023-04-03T13:23:30;0.60;;;0.60;;
11791;SDS011;5953;52.372;9.918;2023-04-03T13:26:02;1.70;;;0.57;;
11791;SDS011;5953;52.372;9.918;2023-04-03T13:28:31;1.43;;;0.90;;
11791;SDS011;5953;52.372;9.918;2023-04-03T13:31:05;1.93;;;1.13;;
11791;SDS011;5953;52.372;9.918;2023-04-03T13:33:37;2.03;;;1.00;;
11791;SDS011;5953;52.372;9.918;2023-04-03T13:36:06;3.83;;;0.80;;
11791;SDS011;5953;52.372;9.918;2023-04-03T13:38:38;0.97;;;0.80;;
11791;SDS011;5953;52.372;9.918;2023-04-03T13:43:52;1.67;;;0.70;;
11791;SDS011;5953;52.372;9.918;2023-04-03T13:46:35;3.73;;;1.30;;
11791;SDS011;5953;52.372;9.918;2023-04-03T13:49:09;2.37;;;1.10;;
11791;SDS011;5953;52.372;9.918;2023-04-03T13:51:45;2.17;;;0.80;;
11791;SDS011;5953;52.372;9.918;2023-04-03T13:54:30;2.33;;;1.10;;
11791;SDS011;5953;52.372;9.918;2023-04-03T13:57:03;1.50;;;0.97;;
11791;SDS011;5953;52.372;9.918;2023-04-03T13:59:39;1.30;;;0.70;;
11791;SDS011;5953;52.372;9.918;2023-04-03T14:02:13;3.23;;;1.20;;
11791;SDS011;5953;52.372;9.918;2023-04-03T14:04:47;0.70;;;0.70;;
11791;SDS011;5953;52.372;9.918;2023-04-03T14:07:19;0.90;;;0.70;;
11791;SDS011;5953;52.372;9.918;2023-04-03T14:09:47;1.73;;;0.80;;
11791;SDS011;5953;52.372;9.918;2023-04-03T14:12:18;1.63;;;1.07;;
11791;SDS011;5953;52.372;9.918;2023-04-03T14:14:57;3.03;;;1.17;;
11791;SDS011;5953;52.372;9.918;2023-04-03T14:17:25;1.47;;;0.97;;
11791;SDS011;5953;52.372;9.918;2023-04-03T14:19:54;3.60;;;1.10;;
11791;SDS011;5953;52.372;9.918;2023-04-03T14:22:24;3.13;;;0.60;;
11791;SDS011;5953;52.372;9.918;2023-04-03T14:24:54;3.73;;;1.00;;
11791;SDS011;5953;52.372;9.918;2023-04-03T14:27:25;2.40;;;1.33;;
11791;SDS011;5953;52.372;9.918;2023-04-03T14:29:56;1.53;;;1.10;;
11791;SDS011;5953;52.372;9.918;2023-04-03T14:32:25;1.60;;;0.97;;
11791;SDS011;5953;52.372;9.918;2023-04-03T14:34:53;1.60;;;1.10;;
11791;SDS011;5953;52.372;9.918;2023-04-03T14:37:22;2.47;;;1.20;;
11791;SDS011;5953;52.372;9.918;2023-04-03T14:39:52;2.57;;;1.27;;
11791;SDS011;5953;52.372;9.918;2023-04-03T14:42:22;2.30;;;0.93;;
11791;SDS011;5953;52.372;9.918;2023-04-03T14:44:53;2.67;;;1.03;;
11791;SDS011;5953;52.372;9.918;2023-04-03T14:47:23;4.00;;;1.53;;
11791;SDS011;5953;52.372;9.918;2023-04-03T14:49:57;3.30;;;1.00;;
11791;SDS011;5953;52.372;9.918;2023-04-03T14:52:27;2.40;;;1.00;;
11791;SDS011;5953;52.372;9.918;2023-04-03T14:54:57;1.53;;;0.80;;
11791;SDS011;5953;52.372;9.918;2023-04-03T14:57:27;1.77;;;1.27;;
11791;SDS011;5953;52.372;9.918;2023-04-03T14:59:58;2.87;;;1.00;;
11791;SDS011;5953;52.372;9.918;2023-04-03T15:02:28;2.87;;;1.30;;
11791;SDS011;5953;52.372;9.918;2023-04-03T15:04:57;4.07;;;1.20;;
11791;SDS011;5953;52.372;9.918;2023-04-03T15:07:26;1.90;;;0.90;;
11791;SDS011;5953;52.372;9.918;2023-04-03T15:09:55;2.20;;;0.87;;
11791;SDS011;5953;52.372;9.918;2023-04-03T15:12:23;2.63;;;1.17;;
11791;SDS011;5953;52.372;9.918;2023-04-03T15:14:51;1.20;;;0.77;;
11791;SDS011;5953;52.372;9.918;2023-04-03T15:17:29;5.00;;;0.90;;
11791;SDS011;5953;52.372;9.918;2023-04-03T15:19:57;3.07;;;1.03;;
11791;SDS011;5953;52.372;9.918;2023-04-03T15:22:25;2.37;;;0.80;;
11791;SDS011;5953;52.372;9.918;2023-04-03T15:24:53;2.60;;;0.90;;
11791;SDS011;5953;52.372;9.918;2023-04-03T15:27:21;2.40;;;1.00;;
11791;SDS011;5953;52.372;9.918;2023-04-03T15:29:48;1.20;;;1.10;;
11791;SDS011;5953;52.372;9.918;2023-04-03T15:32:16;2.03;;;1.07;;
11791;SDS011;5953;52.372;9.918;2023-04-03T15:34:45;1.60;;;0.90;;
11791;SDS011;5953;52.372;9.918;2023-04-03T15:37:13;1.73;;;0.93;;
11791;SDS011;5953;52.372;9.918;2023-04-03T15:39:41;1.90;;;1.17;;
11791;SDS011;5953;52.372;9.918;2023-04-03T15:42:09;2.33;;;1.07;;
11791;SDS011;5953;52.372;9.918;2023-04-03T15:44:39;2.40;;;1.00;;
11791;SDS011;5953;52.372;9.918;2023-04-03T15:47:06;2.80;;;1.20;;
11791;SDS011;5953;52.372;9.918;2023-04-03T15:49:34;3.37;;;1.37;;